Time;durP1;ratioP1;P1;durP2;ratioP2;P2;SDS_P1;SDS_P2;PMS_P1;PMS_P2;Temp;Humidity;BMP_temperature;BMP_pressure;BME280_temperature;BME280_humidity;BME280_pressure;Samples;Min_cycle;Max_cycle;Signal;HPM_P1;HPM_P2
2022/11/23 00:00:35;;;;;;;5.70;3.40;;;;;;;5.93;79.43;93568.16;5091179;28;20028;-71
2022/11/23 00:03:01;;;;;;;5.22;3.58;;;;;;;5.34;79.53;93492.34;5102047;28;20489;-71
2022/11/23 00:05:27;;;;;;;7.38;5.22;;;;;;;5.68;80.42;93557.31;5111476;28;20036;-71
2022/11/23 00:07:52;;;;;;;6.30;4.03;;;;;;;5.36;80.10;93493.03;5111263;28;20038;-71
2022/11/23 00:10:18;;;;;;;9.27;5.18;;;;;;;5.71;79.64;93540.78;5077436;28;20477;-70
2022/11/23 00:12:43;;;;;;;6.47;4.15;;;;;;;5.42;80.09;93495.09;5073480;28;20056;-71
2022/11/23 00:15:09;;;;;;;5.35;3.33;;;;;;;5.73;79.91;93554.38;5090916;28;20063;-71
2022/11/23 00:17:34;;;;;;;4.85;3.00;;;;;;;5.26;80.17;93499.88;5096075;28;20043;-71
2022/11/23 00:20:00;;;;;;;6.80;3.78;;;;;;;5.35;80.05;93497.38;5110588;28;20512;-71
2022/11/23 00:22:25;;;;;;;6.50;4.18;;;;;;;5.50;80.19;93509.91;5093246;28;20028;-71
2022/11/23 00:24:50;;;;;;;5.13;3.42;;;;;;;5.43;79.89;93504.44;5090656;28;20032;-71
2022/11/23 00:27:16;;;;;;;5.82;3.20;;;;;;;5.54;80.13;93522.44;5073823;28;20028;-71
2022/11/23 00:29:41;;;;;;;5.70;3.08;;;;;;;5.95;80.01;93556.00;5090508;28;20028;-71
2022/11/23 00:32:07;;;;;;;3.83;2.90;;;;;;;5.61;79.98;93499.53;5076779;28;20035;-71
2022/11/23 00:34:32;;;;;;;5.15;3.20;;;;;;;5.60;80.19;93497.91;5076834;28;20035;-71
2022/11/23 00:36:58;;;;;;;3.90;3.03;;;;;;;5.85;79.76;93531.91;5093735;28;20040;-71
2022/11/23 00:39:23;;;;;;;4.45;2.85;;;;;;;6.01;79.87;93560.63;5111796;28;20081;-71
2022/11/23 00:41:49;;;;;;;7.68;5.78;;;;;;;5.71;79.82;93495.25;5097546;28;20036;-71
2022/11/23 00:44:14;;;;;;;5.05;3.30;;;;;;;5.97;79.84;93541.22;5073366;28;20039;-71
2022/11/23 00:46:40;;;;;;;3.47;2.40;;;;;;;5.66;79.84;93501.72;5064014;28;20430;-71
2022/11/23 00:49:05;;;;;;;6.25;2.53;;;;;;;5.85;79.82;93517.28;5107754;28;20558;-71
2022/11/23 00:51:33;;;;;;;4.82;2.40;;;;;;;6.06;79.76;93565.41;5093756;28;20032;-71
2022/11/23 00:53:58;;;;;;;5.00;2.20;;;;;;;5.86;79.75;93557.56;5093559;28;20035;-71
2022/11/23 00:56:24;;;;;;;4.00;2.80;;;;;;;5.58;80.04;93510.09;5105440;28;20106;-71
2022/11/23 00:58:54;;;;;;;4.97;2.78;;;;;;;5.63;80.08;93502.81;5090014;28;20032;-71
2022/11/23 01:01:21;;;;;;;4.07;2.63;;;;;;;5.67;80.17;93509.31;5090174;28;20127;-71
2022/11/23 01:03:48;;;;;;;5.35;2.65;;;;;;;5.68;80.38;93500.63;5082958;28;20043;-71
2022/11/23 01:06:15;;;;;;;5.10;3.50;;;;;;;5.63;80.36;93483.94;5093248;28;20031;-71
2022/11/23 01:08:41;;;;;;;9.73;6.65;;;;;;;5.72;80.40;93504.59;5093288;28;20027;-71
2022/11/23 01:11:10;;;;;;;9.82;6.47;;;;;;;6.15;80.53;93567.19;5090768;28;20111;-71
2022/11/23 01:13:36;;;;;;;6.63;3.90;;;;;;;5.75;80.32;93506.91;5065503;28;20035;-71
2022/11/23 01:16:02;;;;;;;4.65;2.50;;;;;;;5.57;80.60;93477.53;5093287;28;20034;-71
2022/11/23 01:18:27;;;;;;;3.95;2.40;;;;;;;5.69;80.66;93483.44;5072856;28;20024;-71
2022/11/23 01:20:53;;;;;;;4.95;2.67;;;;;;;5.89;80.42;93494.63;5072900;28;20066;-71
2022/11/23 01:23:18;;;;;;;7.65;2.90;;;;;;;5.87;80.65;93491.34;5072903;28;20054;-71
2022/11/23 01:25:44;;;;;;;4.50;2.80;;;;;;;5.93;80.52;93483.94;5056243;28;20043;-71
2022/11/23 01:28:09;;;;;;;9.88;2.60;;;;;;;5.96;80.78;93488.84;5089748;28;20082;-71
2022/11/23 01:30:35;;;;;;;4.15;2.47;;;;;;;6.33;80.55;93531.28;5089781;28;20473;-71
2022/11/23 01:33:02;;;;;;;3.90;2.25;;;;;;;6.38;80.49;93539.41;5098500;28;20402;-71
2022/11/23 01:35:27;;;;;;;6.35;2.58;;;;;;;6.45;80.67;93538.75;5072863;28;20505;-71
2022/11/23 01:37:53;;;;;;;5.72;2.53;;;;;;;5.95;81.14;93489.78;5072813;28;20036;-71
2022/11/23 01:40:18;;;;;;;4.00;2.63;;;;;;;6.03;80.92;93491.72;5091250;28;20041;-71
2022/11/23 01:42:58;;;;;;;5.35;2.80;;;;;;;6.26;81.28;93560.16;5076009;28;20117;-71
2022/11/23 01:45:30;;;;;;;13.32;8.40;;;;;;;5.91;82.51;93564.91;5109710;28;20032;-71
2022/11/23 01:47:55;;;;;;;8.93;7.00;;;;;;;5.81;82.64;93537.31;5104873;28;20579;-71
2022/11/23 01:50:21;;;;;;;7.78;6.03;;;;;;;5.93;82.31;93532.91;5109869;28;20039;-71
2022/11/23 01:52:46;;;;;;;5.45;3.38;;;;;;;6.32;81.88;93565.75;5077294;28;20054;-71
2022/11/23 01:55:12;;;;;;;5.65;3.10;;;;;;;5.85;81.76;93511.28;5114033;28;20481;-71
2022/11/23 01:57:39;;;;;;;3.10;2.35;;;;;;;5.99;81.47;93526.41;5078226;28;20425;-71
2022/11/23 02:00:05;;;;;;;4.20;3.15;;;;;;;6.08;81.45;93517.91;5079336;28;20077;-71
2022/11/23 02:02:30;;;;;;;8.65;5.20;;;;;;;5.98;81.25;93496.44;5108888;28;20078;-71
2022/11/23 02:04:56;;;;;;;9.07;5.60;;;;;;;5.85;81.95;93488.09;5076435;28;20501;-71
2022/11/23 02:07:22;;;;;;;6.90;5.20;;;;;;;5.86;81.85;93471.69;5093646;28;20414;-71
2022/11/23 02:09:48;;;;;;;5.13;4.15;;;;;;;6.07;81.35;93467.28;5113696;28;20469;-71
2022/11/23 02:12:13;;;;;;;5.53;4.03;;;;;;;6.18;81.14;93487.78;5095499;28;20062;-71
2022/11/23 02:14:40;;;;;;;4.60;3.47;;;;;;;6.12;81.01;93479.78;5079544;28;20447;-71
2022/11/23 02:17:05;;;;;;;5.68;4.20;;;;;;;5.91;81.25;93454.06;5112684;28;20039;-71
2022/11/23 02:19:41;;;;;;;5.47;3.60;;;;;;;6.31;81.16;93530.59;5059372;28;20020;-71
2022/11/23 02:22:11;;;;;;;5.20;3.60;;;;;;;6.49;81.28;93552.19;5076946;28;20032;-71
2022/11/23 02:24:40;;;;;;;8.97;6.47;;;;;;;6.03;81.61;93478.81;5081065;28;20027;-71
2022/11/23 02:27:06;;;;;;;23.45;13.90;;;;;;;5.70;82.10;93454.13;5096685;28;20363;-71
2022/11/23 02:29:32;;;;;;;9.43;7.40;;;;;;;5.81;82.37;93482.38;5079499;28;20024;-71
2022/11/23 02:31:57;;;;;;;9.75;6.45;;;;;;;5.63;82.70;93474.47;5113236;28;20028;-71
2022/11/23 02:34:23;;;;;;;9.00;6.53;;;;;;;6.00;83.07;93533.22;5112802;28;20031;-71
2022/11/23 02:36:49;;;;;;;8.45;6.55;;;;;;;5.58;82.74;93450.84;5079196;28;20039;-71
2022/11/23 02:39:20;;;;;;;9.55;6.70;;;;;;;5.79;83.31;93498.00;5096012;28;20505;-71
2022/11/23 02:41:47;;;;;;;11.55;7.30;;;;;;;5.68;83.08;93454.25;5091355;28;20111;-71
2022/11/23 02:44:49;;;;;;;10.18;7.47;;;;;;;6.04;82.83;93516.53;5106113;28;20106;-71
2022/11/23 02:47:14;;;;;;;10.65;6.55;;;;;;;5.52;82.87;93433.34;5112188;28;20042;-71
2022/11/23 02:49:40;;;;;;;9.25;6.40;;;;;;;5.47;84.13;93468.97;5109282;28;20043;-71
2022/11/23 02:52:06;;;;;;;8.55;6.18;;;;;;;5.34;84.57;93441.66;5075648;28;20077;-71
2022/11/23 02:54:31;;;;;;;10.68;7.03;;;;;;;5.46;84.85;93487.94;5075517;28;20089;-71
2022/11/23 02:56:57;;;;;;;9.60;7.40;;;;;;;4.95;84.77;93383.22;5075730;28;20074;-71
2022/11/23 02:59:22;;;;;;;11.82;7.85;;;;;;;4.93;84.96;93385.91;5092912;28;20024;-71
2022/11/23 03:01:48;;;;;;;10.13;7.80;;;;;;;5.04;84.46;93364.41;5091784;28;20441;-71
2022/11/23 03:04:13;;;;;;;10.05;7.43;;;;;;;5.37;83.98;93420.78;5082665;28;20111;-71
2022/11/23 03:06:39;;;;;;;10.40;7.88;;;;;;;5.46;83.43;93393.47;5089234;28;20044;-71
2022/11/23 03:09:05;;;;;;;10.80;7.93;;;;;;;5.45;83.31;93386.66;5080519;28;20038;-71
2022/11/23 03:11:30;;;;;;;14.55;10.02;;;;;;;5.83;83.05;93442.66;5074992;28;20056;-70
2022/11/23 03:13:56;;;;;;;13.63;10.88;;;;;;;5.48;82.70;93375.28;5074978;28;20127;-70
2022/11/23 03:16:21;;;;;;;11.20;9.10;;;;;;;5.90;82.46;93432.63;5081971;28;20088;-70
2022/11/23 03:18:47;;;;;;;13.98;10.30;;;;;;;5.69;82.06;93413.88;5091343;28;20036;-70
2022/11/23 03:21:12;;;;;;;12.35;9.80;;;;;;;5.76;81.95;93418.34;5076081;28;20485;-70
2022/11/23 03:23:38;;;;;;;13.80;9.75;;;;;;;5.36;82.13;93385.69;5058309;28;20414;-70
2022/11/23 03:26:03;;;;;;;12.48;9.30;;;;;;;5.80;82.45;93460.16;5076180;28;20040;-70
2022/11/23 03:28:29;;;;;;;12.27;9.35;;;;;;;5.92;81.89;93447.97;5074859;28;20043;-70
2022/11/23 03:30:54;;;;;;;13.88;9.02;;;;;;;5.85;81.58;93439.13;5075056;28;20439;-70
2022/11/23 03:33:20;;;;;;;11.85;9.65;;;;;;;6.03;81.56;93442.72;5091847;28;20095;-70
2022/11/23 03:35:45;;;;;;;11.88;8.98;;;;;;;5.97;81.32;93463.88;5095162;28;20035;-70
2022/11/23 03:38:11;;;;;;;11.15;8.70;;;;;;;5.52;81.38;93379.25;5094970;28;20039;-70
2022/11/23 03:40:36;;;;;;;13.20;9.55;;;;;;;5.55;81.71;93402.16;5077992;28;20408;-70
2022/11/23 03:43:02;;;;;;;11.80;8.95;;;;;;;5.51;81.34;93401.59;5102530;28;20024;-69
2022/11/23 03:45:27;;;;;;;12.20;9.25;;;;;;;5.64;81.46;93403.94;5074629;28;20036;-70
2022/11/23 03:47:53;;;;;;;11.48;8.77;;;;;;;5.56;81.49;93394.28;5057862;28;20406;-70
2022/11/23 03:50:18;;;;;;;12.57;9.05;;;;;;;5.86;80.89;93425.31;5107642;28;20027;-70
2022/11/23 03:52:44;;;;;;;16.20;10.55;;;;;;;5.74;81.31;93422.00;5094577;28;20057;-70
2022/11/23 03:55:09;;;;;;;13.57;10.23;;;;;;;5.62;81.67;93395.53;5111756;28;20027;-69
2022/11/23 03:57:34;;;;;;;15.27;10.32;;;;;;;5.55;81.37;93372.06;5112573;28;20032;-70
2022/11/23 04:00:00;;;;;;;17.67;10.82;;;;;;;6.00;81.24;93424.94;5094412;28;20062;-70
2022/11/23 04:02:26;;;;;;;14.13;10.98;;;;;;;5.50;81.31;93342.50;5111551;28;20039;-71
2022/11/23 04:04:51;;;;;;;14.52;10.90;;;;;;;5.89;81.59;93415.53;5110331;28;20031;-69
2022/11/23 04:07:16;;;;;;;12.45;10.55;;;;;;;5.95;81.35;93401.31;5094347;28;20043;-70
2022/11/23 04:09:42;;;;;;;18.75;10.85;;;;;;;5.52;81.34;93335.47;5094354;28;20528;-69
2022/11/23 04:12:08;;;;;;;13.32;9.85;;;;;;;5.58;81.16;93332.34;5111343;28;20051;-69
2022/11/23 04:14:34;;;;;;;12.50;9.68;;;;;;;5.94;81.35;93397.13;5077018;28;20028;-70
2022/11/23 04:17:01;;;;;;;15.75;11.75;;;;;;;5.33;81.68;93311.28;5110708;28;20038;-69
2022/11/23 04:19:26;;;;;;;18.38;13.48;;;;;;;5.25;81.55;93300.81;5110331;28;20039;-69
2022/11/23 04:21:53;;;;;;;33.20;21.15;;;;;;;5.79;81.30;93387.19;5108743;28;20019;-69
2022/11/23 04:24:19;;;;;;;46.65;32.17;;;;;;;5.47;81.08;93341.00;5074026;28;20147;-70
2022/11/23 04:26:45;;;;;;;49.80;36.22;;;;;;;5.36;81.18;93331.59;5073840;28;20534;-70
2022/11/23 04:29:10;;;;;;;40.00;28.10;;;;;;;5.88;81.26;93419.06;5104402;28;20104;-70
2022/11/23 04:31:36;;;;;;;20.48;14.57;;;;;;;5.60;82.12;93410.31;5110901;28;20035;-71
2022/11/23 04:34:01;;;;;;;16.67;13.30;;;;;;;5.17;82.99;93361.63;5093793;28;20020;-70
2022/11/23 04:36:27;;;;;;;18.35;14.40;;;;;;;5.28;82.28;93372.66;5076537;28;20036;-70
2022/11/23 04:38:52;;;;;;;19.33;15.98;;;;;;;5.44;82.38;93391.97;5094027;28;20504;-70
2022/11/23 04:41:18;;;;;;;22.10;17.08;;;;;;;5.75;82.21;93436.53;5076892;28;20469;-70
2022/11/23 04:43:44;;;;;;;23.02;16.60;;;;;;;5.43;81.77;93361.97;5089856;28;20089;-70
2022/11/23 04:46:12;;;;;;;20.02;14.27;;;;;;;5.55;82.60;93428.72;5098807;28;20103;-70
2022/11/23 04:48:37;;;;;;;18.77;12.25;;;;;;;5.38;82.07;93376.09;5089831;28;20139;-70
2022/11/23 04:51:03;;;;;;;17.95;13.05;;;;;;;5.79;81.98;93441.28;5073657;28;20110;-70
2022/11/23 04:53:28;;;;;;;18.13;13.45;;;;;;;5.63;81.59;93417.78;5090340;28;20379;-70
2022/11/23 04:55:54;;;;;;;18.20;12.82;;;;;;;5.50;80.64;93405.13;5106501;28;20035;-70
2022/11/23 04:58:19;;;;;;;20.13;14.95;;;;;;;5.82;80.67;93468.53;5110408;28;20032;-70
2022/11/23 05:00:45;;;;;;;20.27;15.95;;;;;;;5.70;81.14;93467.81;5093464;28;20031;-70
2022/11/23 05:03:10;;;;;;;18.65;14.65;;;;;;;5.83;81.02;93483.88;5098656;28;20028;-70
2022/11/23 05:05:37;;;;;;;18.70;14.32;;;;;;;5.70;81.31;93474.75;5080576;28;20525;-70
2022/11/23 05:08:03;;;;;;;18.50;13.57;;;;;;;5.04;81.62;93397.88;5093476;28;20449;-71
2022/11/23 05:10:28;;;;;;;17.33;12.75;;;;;;;5.33;81.22;93442.59;5093107;28;20119;-71
2022/11/23 05:12:54;;;;;;;16.95;12.68;;;;;;;5.19;81.39;93418.97;5093070;28;20043;-70
2022/11/23 05:15:19;;;;;;;16.15;12.55;;;;;;;5.12;82.26;93441.81;5061031;28;20481;-70
2022/11/23 05:17:45;;;;;;;15.68;11.85;;;;;;;5.14;81.75;93424.50;5076164;28;20039;-70
2022/11/23 05:20:10;;;;;;;15.13;10.48;;;;;;;5.67;81.72;93483.56;5091191;28;20101;-70
2022/11/23 05:22:36;;;;;;;16.77;11.88;;;;;;;4.90;83.46;93376.72;5092266;28;20047;-70
2022/11/23 05:25:01;;;;;;;16.67;11.57;;;;;;;5.20;83.27;93416.25;5091515;28;20031;-70
2022/11/23 05:27:27;;;;;;;16.45;12.45;;;;;;;5.04;83.01;93388.44;5106280;28;20024;-70
2022/11/23 05:29:52;;;;;;;17.27;12.13;;;;;;;5.31;82.73;93425.66;5091442;28;20036;-70
2022/11/23 05:32:17;;;;;;;16.30;12.15;;;;;;;5.32;83.29;93430.69;5097235;28;20028;-70
2022/11/23 05:34:43;;;;;;;15.30;11.63;;;;;;;5.73;83.30;93480.44;5096468;28;20039;-70
2022/11/23 05:37:08;;;;;;;17.35;13.52;;;;;;;5.19;83.59;93411.25;5098242;28;20512;-70
2022/11/23 05:39:37;;;;;;;17.55;13.05;;;;;;;5.71;83.43;93484.09;5071540;28;20036;-70
2022/11/23 05:42:03;;;;;;;14.82;11.48;;;;;;;5.83;83.06;93477.91;5097133;28;20028;-71
2022/11/23 05:44:29;;;;;;;19.02;13.82;;;;;;;5.23;83.70;93381.72;5083112;28;20024;-70
2022/11/23 05:46:54;;;;;;;17.15;12.77;;;;;;;5.21;83.43;93378.44;5093260;28;20116;-70
2022/11/23 05:49:20;;;;;;;17.20;12.88;;;;;;;5.49;83.04;93410.38;5100805;28;20478;-70
2022/11/23 05:51:45;;;;;;;16.92;13.27;;;;;;;5.87;83.16;93458.66;5087799;28;20035;-70
2022/11/23 05:54:11;;;;;;;17.63;13.48;;;;;;;5.83;83.33;93458.13;5097099;28;20452;-70
2022/11/23 05:56:36;;;;;;;16.60;13.05;;;;;;;5.55;83.10;93407.31;5095348;28;20059;-70
2022/11/23 05:59:02;;;;;;;18.75;13.13;;;;;;;5.44;82.98;93390.19;5073757;28;20024;-70
2022/11/23 06:01:27;;;;;;;17.40;13.45;;;;;;;6.02;82.51;93467.69;5096173;28;20444;-70
2022/11/23 06:03:53;;;;;;;17.10;13.43;;;;;;;5.90;82.73;93452.44;5088760;28;20032;-70
2022/11/23 06:06:18;;;;;;;17.65;13.38;;;;;;;5.60;82.73;93405.97;5071866;28;20405;-70
2022/11/23 06:08:44;;;;;;;19.42;13.13;;;;;;;5.62;82.53;93394.72;5106834;28;20461;-70
2022/11/23 06:11:09;;;;;;;16.90;12.75;;;;;;;6.17;82.45;93473.28;5111596;28;20054;-70
2022/11/23 06:13:35;;;;;;;17.60;13.43;;;;;;;6.23;82.13;93459.03;5117272;28;20044;-70
2022/11/23 06:16:01;;;;;;;15.82;12.70;;;;;;;5.83;81.77;93391.09;5092569;28;20193;-70
2022/11/23 06:18:26;;;;;;;17.45;13.70;;;;;;;5.83;81.83;93383.38;5128613;28;20404;-70
2022/11/23 06:20:51;;;;;;;17.25;14.57;;;;;;;6.47;81.78;93472.38;5130108;28;20072;-70
2022/11/23 06:23:17;;;;;;;16.25;13.60;;;;;;;6.56;81.48;93483.66;5130068;28;20516;-70
2022/11/23 06:25:42;;;;;;;17.48;13.13;;;;;;;6.47;81.97;93472.38;5102460;28;20031;-70
2022/11/23 06:28:08;;;;;;;16.80;13.05;;;;;;;6.16;81.92;93427.81;5089982;28;20024;-70
2022/11/23 06:30:33;;;;;;;16.33;13.40;;;;;;;6.66;81.43;93499.16;5107095;28;20092;-70
2022/11/23 06:33:02;;;;;;;17.83;13.63;;;;;;;6.70;81.71;93493.56;5088376;28;20036;-70
2022/11/23 06:35:27;;;;;;;18.05;12.98;;;;;;;6.70;81.78;93478.06;5089786;28;20282;-70
2022/11/23 06:37:53;;;;;;;17.25;13.68;;;;;;;6.74;81.73;93477.78;5088573;28;20061;-71
2022/11/23 06:40:19;;;;;;;15.82;12.95;;;;;;;6.86;81.84;93489.63;5102443;28;20038;-70
2022/11/23 06:42:44;;;;;;;17.98;13.75;;;;;;;6.33;81.90;93410.88;5073937;28;20040;-70
2022/11/23 06:45:10;;;;;;;23.45;20.90;;;;;;;6.87;81.97;93479.16;5095538;28;20035;-71
2022/11/23 06:47:36;;;;;;;24.05;18.15;;;;;;;6.80;83.18;93482.41;5078975;28;20439;-69
2022/11/23 06:50:01;;;;;;;20.20;15.70;;;;;;;7.01;82.61;93490.81;5102679;28;20484;-72
2022/11/23 06:52:27;;;;;;;18.83;14.57;;;;;;;6.99;82.52;93476.41;5100386;27;20461;-72
2022/11/23 06:54:52;;;;;;;18.30;14.52;;;;;;;7.13;82.34;93488.91;5110238;27;20042;-72
2022/11/23 06:57:17;;;;;;;20.80;15.52;;;;;;;7.23;81.91;93489.72;5107236;27;20077;-71
2022/11/23 06:59:44;;;;;;;22.83;17.80;;;;;;;7.18;82.09;93491.09;5121297;27;20024;-70
2022/11/23 07:02:10;;;;;;;21.83;16.88;;;;;;;7.26;81.98;93483.44;5111462;27;20537;-71
2022/11/23 07:04:35;;;;;;;22.17;16.80;;;;;;;7.41;81.65;93494.16;5075441;28;20024;-71
2022/11/23 07:07:01;;;;;;;19.25;16.42;;;;;;;7.12;81.50;93433.06;5063282;28;20055;-71
2022/11/23 07:09:27;;;;;;;17.63;14.73;;;;;;;7.34;81.97;93483.56;5092058;28;20031;-71
2022/11/23 07:11:53;;;;;;;16.75;13.48;;;;;;;7.42;81.81;93488.84;5093356;28;20089;-71
2022/11/23 07:14:18;;;;;;;18.10;14.48;;;;;;;7.29;81.83;93458.16;5079130;28;20387;-71
2022/11/23 07:16:44;;;;;;;15.70;13.50;;;;;;;7.64;81.74;93498.03;5098800;27;20043;-71
2022/11/23 07:19:09;;;;;;;18.45;14.95;;;;;;;7.30;81.34;93412.47;5126508;27;20027;-71
2022/11/23 07:21:35;;;;;;;15.60;12.82;;;;;;;7.56;80.98;93439.31;5132271;27;20050;-72
2022/11/23 07:24:00;;;;;;;14.27;11.80;;;;;;;7.99;80.55;93492.16;5114803;27;20030;-71
2022/11/23 07:26:26;;;;;;;14.60;12.10;;;;;;;8.16;80.10;93459.56;5134565;27;20035;-71
2022/11/23 07:28:51;;;;;;;15.35;11.63;;;;;;;8.30;79.48;93478.94;5115584;27;20027;-71
2022/11/23 07:31:17;;;;;;;14.93;12.38;;;;;;;8.44;78.95;93486.25;5134430;27;20027;-72
2022/11/23 07:33:46;;;;;;;13.55;12.10;;;;;;;8.56;79.13;93488.63;5133903;27;20436;-72
2022/11/23 07:36:12;;;;;;;14.95;13.05;;;;;;;8.59;79.27;93489.16;5116092;27;20100;-72
2022/11/23 07:38:37;;;;;;;16.00;12.55;;;;;;;8.37;79.10;93456.69;5115543;27;20027;-71
2022/11/23 07:41:02;;;;;;;13.55;11.40;;;;;;;8.58;78.72;93487.53;5115420;27;20031;-72
2022/11/23 07:43:28;;;;;;;15.32;11.45;;;;;;;8.38;77.83;93429.03;5115339;27;20031;-72
2022/11/23 07:45:55;;;;;;;17.92;14.02;;;;;;;8.79;78.31;93484.63;5132697;27;20416;-72
2022/11/23 07:48:21;;;;;;;19.65;15.35;;;;;;;8.91;78.19;93498.16;5133609;27;20513;-71
2022/11/23 07:50:46;;;;;;;20.10;16.13;;;;;;;9.01;78.27;93495.50;5131999;27;20096;-71
2022/11/23 07:53:12;;;;;;;17.58;13.85;;;;;;;8.96;77.62;93488.16;5115233;27;20419;-72
2022/11/23 07:55:37;;;;;;;16.73;13.13;;;;;;;9.06;77.00;93488.09;5132411;27;20076;-71
2022/11/23 07:58:04;;;;;;;22.52;17.58;;;;;;;8.90;76.36;93442.97;5114915;27;20084;-72
2022/11/23 08:00:30;;;;;;;17.42;14.40;;;;;;;9.33;75.62;93493.16;5133573;27;20557;-72
2022/11/23 08:02:58;;;;;;;18.02;14.55;;;;;;;9.15;76.18;93489.78;5115089;27;20023;-72
2022/11/23 08:05:25;;;;;;;19.85;15.25;;;;;;;8.94;76.76;93496.09;5133506;27;20104;-72
2022/11/23 08:07:50;;;;;;;18.55;14.77;;;;;;;9.10;76.51;93499.78;5131959;27;20108;-72
2022/11/23 08:10:16;;;;;;;18.75;14.40;;;;;;;9.26;76.68;93499.91;5097823;27;20131;-71
2022/11/23 08:12:41;;;;;;;16.20;12.85;;;;;;;9.52;75.80;93496.50;5114808;27;20436;-72
2022/11/23 08:15:07;;;;;;;17.23;13.70;;;;;;;9.56;75.79;93490.06;5131913;27;20064;-72
2022/11/23 08:17:33;;;;;;;15.63;13.63;;;;;;;9.12;75.91;93433.09;5131730;27;20416;-74
2022/11/23 08:19:58;;;;;;;13.77;12.00;;;;;;;9.24;76.24;93488.88;5131608;27;20034;-73
2022/11/23 08:22:25;;;;;;;15.88;12.35;;;;;;;9.24;74.71;93475.09;5131716;27;20092;-72
2022/11/23 08:24:51;;;;;;;14.98;12.15;;;;;;;9.03;74.26;93454.72;5097918;27;20030;-73
2022/11/23 08:27:16;;;;;;;15.77;13.52;;;;;;;8.98;74.36;93450.00;5131709;27;20027;-73
2022/11/23 08:29:41;;;;;;;17.67;14.00;;;;;;;9.28;75.01;93445.34;5131493;27;20035;-72
2022/11/23 08:32:07;;;;;;;18.00;14.38;;;;;;;9.50;75.25;93485.47;5114705;27;20080;-73
2022/11/23 08:34:32;;;;;;;21.92;16.58;;;;;;;9.27;75.36;93449.69;5131503;27;20035;-72
2022/11/23 08:36:58;;;;;;;19.58;15.35;;;;;;;9.46;75.53;93466.81;5132670;27;20561;-73
2022/11/23 08:39:23;;;;;;;22.10;16.33;;;;;;;9.30;75.85;93482.28;5131568;27;20019;-72
2022/11/23 08:41:49;;;;;;;20.17;15.85;;;;;;;9.66;75.55;93476.97;5132548;27;20035;-73
2022/11/23 08:44:14;;;;;;;20.80;16.45;;;;;;;9.82;74.92;93474.47;5131176;27;20035;-73
2022/11/23 08:46:40;;;;;;;19.20;15.95;;;;;;;10.14;74.08;93483.34;5131306;27;20505;-72
2022/11/23 08:49:06;;;;;;;18.98;16.20;;;;;;;10.11;73.17;93460.31;5132385;27;20019;-72
2022/11/23 08:51:31;;;;;;;20.20;15.60;;;;;;;10.34;72.04;93483.97;5131258;27;20038;-73
2022/11/23 08:53:57;;;;;;;28.17;19.60;;;;;;;10.23;72.40;93443.50;5114005;27;20027;-72
2022/11/23 08:56:22;;;;;;;22.05;17.25;;;;;;;10.22;72.46;93455.69;5131106;27;20034;-73
2022/11/23 08:58:48;;;;;;;20.92;15.40;;;;;;;10.20;73.19;93480.97;5096858;27;20031;-73
2022/11/23 09:01:14;;;;;;;29.38;18.23;;;;;;;10.42;72.68;93476.19;5131171;27;20031;-73
2022/11/23 09:03:40;;;;;;;20.33;15.80;;;;;;;10.40;73.10;93462.56;5130152;27;20051;-73
2022/11/23 09:06:06;;;;;;;19.77;15.07;;;;;;;10.76;71.22;93475.28;5131193;27;20121;-73
2022/11/23 09:08:31;;;;;;;20.92;16.27;;;;;;;10.26;71.68;93449.19;5113881;27;20027;-72
2022/11/23 09:11:00;;;;;;;18.50;16.40;;;;;;;9.70;72.38;93396.16;5096579;27;20062;-73
2022/11/23 09:13:26;;;;;;;17.70;15.27;;;;;;;10.36;71.92;93448.25;5113784;27;20507;-73
2022/11/23 09:15:56;;;;;;;19.98;16.35;;;;;;;10.62;71.62;93474.94;5130939;27;20035;-73
2022/11/23 09:18:21;;;;;;;22.45;18.00;;;;;;;10.19;71.81;93442.19;5131971;27;20057;-73
2022/11/23 09:20:47;;;;;;;21.08;18.00;;;;;;;10.40;71.77;93444.41;5113693;27;20035;-73
2022/11/23 09:23:12;;;;;;;20.85;16.77;;;;;;;10.70;72.22;93459.38;5130692;27;20035;-73
2022/11/23 09:25:38;;;;;;;19.25;15.18;;;;;;;10.48;70.39;93377.72;5130871;27;20035;-73
2022/11/23 09:28:03;;;;;;;17.58;14.02;;;;;;;10.57;69.80;93404.50;5131869;27;20035;-73
2022/11/23 09:30:29;;;;;;;13.60;12.02;;;;;;;11.01;69.96;93456.16;5096547;28;20492;-73
2022/11/23 09:32:55;;;;;;;16.80;14.63;;;;;;;11.08;70.71;93438.91;5113571;27;20415;-73
2022/11/23 09:35:21;;;;;;;21.20;14.75;;;;;;;11.25;69.45;93431.91;5113659;28;20035;-73
2022/11/23 09:37:46;;;;;;;18.42;15.18;;;;;;;10.42;71.22;93349.81;5130570;28;20027;-73
2022/11/23 09:40:16;;;;;;;17.90;15.18;;;;;;;11.21;69.88;93427.22;5113377;28;20035;-73
2022/11/23 09:42:50;;;;;;;17.60;14.90;;;;;;;11.17;70.23;93445.75;5131716;27;20019;-73
2022/11/23 09:45:18;;;;;;;19.70;15.52;;;;;;;11.13;70.21;93447.03;5131972;27;20450;-73
2022/11/23 09:47:50;;;;;;;21.85;15.80;;;;;;;10.97;70.91;93447.03;5131655;27;20024;-73
2022/11/23 09:50:40;;;;;;;20.10;15.05;;;;;;;10.79;70.86;93454.19;5130347;28;20027;-73
2022/11/23 09:53:09;;;;;;;18.27;13.88;;;;;;;10.89;70.22;93416.69;5130303;28;20037;-73
2022/11/23 09:55:41;;;;;;;20.35;14.75;;;;;;;11.00;69.93;93438.91;5096511;28;20031;-73
2022/11/23 09:58:06;;;;;;;;;;;;;;;10.98;71.25;93453.88;5113833;28;20073;-73
2022/11/23 10:00:37;;;;;;;19.73;15.20;;;;;;;10.80;73.10;93429.81;5131731;28;20373;-73
2022/11/23 10:03:03;;;;;;;20.63;15.77;;;;;;;10.82;72.79;93430.50;5096334;28;20034;-73
2022/11/23 10:05:31;;;;;;;23.23;16.67;;;;;;;10.62;72.32;93425.59;5130424;28;20027;-73
2022/11/23 10:08:15;;;;;;;21.30;15.98;;;;;;;10.68;72.81;93434.53;5113376;28;20024;-73
2022/11/23 10:10:48;;;;;;;18.10;14.77;;;;;;;10.77;72.88;93437.94;5130327;28;20043;-73
2022/11/23 10:13:26;;;;;;;25.63;19.55;;;;;;;10.82;73.60;93436.50;5097035;27;20509;-73
2022/11/23 10:16:23;;;;;;;26.02;21.17;;;;;;;10.85;72.04;93417.97;5117080;27;20058;-73
2022/11/23 10:18:57;;;;;;;23.75;19.35;;;;;;;10.77;72.33;93445.75;5134310;27;20416;-73
2022/11/23 10:21:33;;;;;;;23.83;18.92;;;;;;;10.78;72.71;93453.38;5134342;27;20484;-73
2022/11/23 10:24:04;;;;;;;25.75;17.23;;;;;;;10.79;72.49;93455.00;5135265;27;20028;-72
2022/11/23 10:26:35;;;;;;;21.98;18.08;;;;;;;10.63;72.52;93429.00;5135800;27;20027;-73
2022/11/23 10:29:16;;;;;;;24.50;18.30;;;;;;;10.68;72.66;93440.53;5117370;27;20042;-72
2022/11/23 10:31:47;;;;;;;25.90;22.05;;;;;;;10.62;73.30;93428.19;5133986;27;20039;-73
2022/11/23 10:34:16;;;;;;;30.13;21.05;;;;;;;10.74;73.85;93457.25;5133849;27;20027;-73
2022/11/23 10:36:42;;;;;;;24.17;17.63;;;;;;;10.49;74.52;93427.84;5133855;27;20039;-73
2022/11/23 10:39:23;;;;;;;21.10;16.42;;;;;;;10.42;73.75;93406.91;5116670;27;20023;-73
2022/11/23 10:41:49;;;;;;;26.35;17.88;;;;;;;10.43;72.06;93429.31;5100081;27;20126;-72
2022/11/23 10:44:24;;;;;;;21.42;16.33;;;;;;;10.43;73.64;93428.50;5133566;27;20031;-73
2022/11/23 10:46:49;;;;;;;21.38;16.38;;;;;;;10.51;74.23;93442.31;5133794;27;20272;-73
2022/11/23 10:49:17;;;;;;;22.92;17.70;;;;;;;10.47;74.39;93455.75;5116664;27;20050;-73
2022/11/23 10:52:19;;;;;;;33.72;23.25;;;;;;;10.21;75.35;93459.22;5116499;27;20046;-73
2022/11/23 10:54:44;;;;;;;22.95;16.02;;;;;;;10.34;75.32;93477.00;5118870;27;20397;-73
2022/11/23 10:57:33;;;;;;;22.02;15.60;;;;;;;10.32;75.43;93455.56;5134739;27;20080;-72
2022/11/23 11:00:14;;;;;;;17.95;11.50;;;;;;;10.18;75.14;93438.78;5116087;27;20035;-73
2022/11/23 11:02:43;;;;;;;18.90;13.30;;;;;;;10.27;74.92;93432.66;5134659;27;20038;-73
2022/11/23 11:05:28;;;;;;;22.67;15.43;;;;;;;10.31;76.54;93430.59;5133370;27;20408;-72
2022/11/23 11:07:54;;;;;;;49.28;26.33;;;;;;;10.42;76.18;93442.44;5116022;27;20053;-72
2022/11/23 11:10:32;;;;;;;28.20;16.48;;;;;;;10.49;76.32;93448.63;5116083;27;20565;-72
2022/11/23 11:12:57;;;;;;;17.13;12.13;;;;;;;10.47;77.08;93443.59;5134377;27;20038;-72
2022/11/23 11:15:23;;;;;;;13.55;9.88;;;;;;;10.37;77.87;93448.13;5115925;27;20027;-72
2022/11/23 11:17:55;;;;;;;19.92;13.60;;;;;;;10.47;77.91;93442.78;5115845;27;20390;-73
2022/11/23 11:20:27;;;;;;;12.80;9.32;;;;;;;10.53;78.18;93423.97;5134317;27;20027;-72
2022/11/23 11:22:55;;;;;;;11.40;7.70;;;;;;;10.47;79.24;93419.41;5134015;27;20031;-72
2022/11/23 11:25:34;;;;;;;10.45;7.88;;;;;;;10.58;78.65;93416.50;5115095;27;20027;-72
2022/11/23 11:28:00;;;;;;;8.65;6.35;;;;;;;10.51;78.20;93415.53;5099695;27;20035;-72